Christy S — WDE5537 — position and weather

sailwx.info

Track history (hours):
 
Tides and Currents Weather Stations Pressure Air Temp Water Temp Dewpoint Dewpoint Depression Visibility Wind Speed Wind Dir Waves Ship Positions

Christy S

Owner: AMERICAN WORKBOATS, TERMINAL ISLAND, CA. More information available from US FCC via Universal Licensing System and Coast Guard Vessel Documentation Center.

Last reported at 2017-Oct-19 01:40 UTC. Time now 2017-Oct-19 02:19 UTC.
Position N 33°46' W 118°12'.

Length 19 m; draft 6.6 m.

Type: Passenger vessel. MMSI: 367368180.

Date/timePositionNaut miles runAvg speedWind from/ knotsBaromVisibWave heightAir tempDewpointWater temp
2017-Oct-19 01:40N 33°46' W 118°12'3 8.4
2017-Oct-19 01:21N 33°43' W 118°13'1 0.3
2017-Oct-18 21:29N 33°44' W 118°13'2 1.6
2017-Oct-18 20:22N 33°43' W 118°14'2 3.6
2017-Oct-18 19:56N 33°44' W 118°16'0 0.1
2017-Oct-18 19:20N 33°44' W 118°16'0 0.0
2017-Oct-18 18:56N 33°44' W 118°16'0 0.0
2017-Oct-18 16:45N 33°44' W 118°16'  
2017-Oct-16 03:47N 33°43' W 118°14'2 6.3
2017-Oct-16 03:28N 33°44' W 118°16'0 0.0
2017-Oct-15 23:36N 33°44' W 118°16'0 1.2
2017-Oct-15 23:29N 33°44' W 118°16'3 5.2
2017-Oct-15 22:53N 33°44' W 118°12'3 2.3
2017-Oct-15 21:34N 33°44' W 118°16'0 0.0
2017-Oct-15 21:28N 33°44' W 118°16'0 0.0
2017-Oct-15 20:52N 33°44' W 118°16'0 0.0
2017-Oct-15 20:28N 33°44' W 118°16'0 0.0
2017-Oct-15 19:49N 33°44' W 118°16'3 9.7
2017-Oct-15 19:30N 33°44' W 118°12'3 5.4
2017-Oct-15 18:57N 33°44' W 118°16'1 2.7
2017-Oct-15 18:29N 33°43' W 118°15'3 4.6
2017-Oct-15 17:52N 33°44' W 118°12'0 0.1
2017-Oct-15 17:26N 33°44' W 118°12'3 6.2
2017-Oct-15 16:57N 33°44' W 118°16'0 0.0
2017-Oct-15 16:22N 33°44' W 118°16'3 6.2
2017-Oct-15 15:53N 33°44' W 118°12'0 0.2
2017-Oct-15 15:16N 33°44' W 118°12'3 0.1
2017-Oct-14 05:51N 33°44' W 118°16'3 5.7
2017-Oct-14 05:18N 33°44' W 118°12'3 3.8
2017-Oct-14 04:29N 33°44' W 118°16'0 0.1
2017-Oct-14 03:52N 33°44' W 118°16'0 0.0
2017-Oct-14 03:31N 33°44' W 118°16'0 0.0
2017-Oct-14 02:58N 33°44' W 118°16'0 0.1
2017-Oct-14 02:31N 33°44' W 118°16'2 1.6
2017-Oct-14 01:17N 33°44' W 118°14'0 0.2
2017-Oct-14 00:58N 33°44' W 118°13'1 2.0
2017-Oct-14 00:27N 33°43' W 118°14'2 3.1
2017-Oct-13 23:56N 33°44' W 118°16'3 5.8
2017-Oct-13 23:25N 33°42' W 118°13'4 3.6
2017-Oct-13 22:20N 33°42' W 118°08'3 3.3
2017-Oct-13 21:23N 33°42' W 118°12'4 9.1
2017-Oct-13 20:59N 33°44' W 118°16'0 0.0
2017-Oct-13 19:46N 33°44' W 118°16'0 0.0
2017-Oct-13 19:15N 33°44' W 118°16'2 5.0
2017-Oct-13 18:55N 33°43' W 118°14'1 1.6
2017-Oct-13 18:26N 33°43' W 118°13'2 3.3
2017-Oct-13 17:49N 33°44' W 118°16'0 1.1
2017-Oct-13 17:26N 33°44' W 118°16'3 4.6
2017-Oct-13 16:46N 33°44' W 118°12'1 1.7
2017-Oct-13 16:00N 33°43' W 118°14'2 0.1
2017-Oct-12 22:21N 33°44' W 118°16'0 0.4
2017-Oct-12 21:39N 33°44' W 118°16'4 3.0
2017-Oct-12 20:12N 33°44' W 118°11'316.1
2017-Oct-12 19:59N 33°43' W 118°15'  
Track history (hours):
 
Tides and Currents Weather Stations Pressure Air Temp Water Temp Dewpoint Dewpoint Depression Visibility Wind Speed Wind Dir Waves Ship Positions

Christy S

Owner: AMERICAN WORKBOATS, TERMINAL ISLAND, CA. More information available from US FCC via Universal Licensing System and Coast Guard Vessel Documentation Center.

Last reported at 2017-Oct-19 01:40 UTC. Time now 2017-Oct-19 02:19 UTC.
Position N 33°46' W 118°12'.

Length 19 m; draft 6.6 m.

Type: Passenger vessel. MMSI: 367368180.

Date/timePositionNaut miles runAvg speedWind from/ knotsBaromVisibWave heightAir tempDewpointWater temp
2017-Oct-19 01:40N 33°46' W 118°12'3 8.4
2017-Oct-19 01:21N 33°43' W 118°13'1 0.3
2017-Oct-18 21:29N 33°44' W 118°13'2 1.6
2017-Oct-18 20:22N 33°43' W 118°14'2 3.6
2017-Oct-18 19:56N 33°44' W 118°16'0 0.1
2017-Oct-18 19:20N 33°44' W 118°16'0 0.0
2017-Oct-18 18:56N 33°44' W 118°16'0 0.0
2017-Oct-18 16:45N 33°44' W 118°16'  
2017-Oct-16 03:47N 33°43' W 118°14'2 6.3
2017-Oct-16 03:28N 33°44' W 118°16'0 0.0
2017-Oct-15 23:36N 33°44' W 118°16'0 1.2
2017-Oct-15 23:29N 33°44' W 118°16'3 5.2
2017-Oct-15 22:53N 33°44' W 118°12'3 2.3
2017-Oct-15 21:34N 33°44' W 118°16'0 0.0
2017-Oct-15 21:28N 33°44' W 118°16'0 0.0
2017-Oct-15 20:52N 33°44' W 118°16'0 0.0
2017-Oct-15 20:28N 33°44' W 118°16'0 0.0
2017-Oct-15 19:49N 33°44' W 118°16'3 9.7
2017-Oct-15 19:30N 33°44' W 118°12'3 5.4
2017-Oct-15 18:57N 33°44' W 118°16'1 2.7
2017-Oct-15 18:29N 33°43' W 118°15'3 4.6
2017-Oct-15 17:52N 33°44' W 118°12'0 0.1
2017-Oct-15 17:26N 33°44' W 118°12'3 6.2
2017-Oct-15 16:57N 33°44' W 118°16'0 0.0
2017-Oct-15 16:22N 33°44' W 118°16'3 6.2
2017-Oct-15 15:53N 33°44' W 118°12'0 0.2
2017-Oct-15 15:16N 33°44' W 118°12'3 0.1
2017-Oct-14 05:51N 33°44' W 118°16'3 5.7
2017-Oct-14 05:18N 33°44' W 118°12'3 3.8
2017-Oct-14 04:29N 33°44' W 118°16'0 0.1
2017-Oct-14 03:52N 33°44' W 118°16'0 0.0
2017-Oct-14 03:31N 33°44' W 118°16'0 0.0
2017-Oct-14 02:58N 33°44' W 118°16'0 0.1
2017-Oct-14 02:31N 33°44' W 118°16'2 1.6
2017-Oct-14 01:17N 33°44' W 118°14'0 0.2
2017-Oct-14 00:58N 33°44' W 118°13'1 2.0
2017-Oct-14 00:27N 33°43' W 118°14'2 3.1
2017-Oct-13 23:56N 33°44' W 118°16'3 5.8
2017-Oct-13 23:25N 33°42' W 118°13'4 3.6
2017-Oct-13 22:20N 33°42' W 118°08'3 3.3
2017-Oct-13 21:23N 33°42' W 118°12'4 9.1
2017-Oct-13 20:59N 33°44' W 118°16'0 0.0
2017-Oct-13 19:46N 33°44' W 118°16'0 0.0
2017-Oct-13 19:15N 33°44' W 118°16'2 5.0
2017-Oct-13 18:55N 33°43' W 118°14'1 1.6
2017-Oct-13 18:26N 33°43' W 118°13'2 3.3
2017-Oct-13 17:49N 33°44' W 118°16'0 1.1
2017-Oct-13 17:26N 33°44' W 118°16'3 4.6
2017-Oct-13 16:46N 33°44' W 118°12'1 1.7
2017-Oct-13 16:00N 33°43' W 118°14'2 0.1
2017-Oct-12 22:21N 33°44' W 118°16'0 0.4
2017-Oct-12 21:39N 33°44' W 118°16'4 3.0
2017-Oct-12 20:12N 33°44' W 118°11'316.1
2017-Oct-12 19:59N 33°43' W 118°15'  

Dump ship's entire track history